Time;durP1;ratioP1;P1;durP2;ratioP2;P2;SDS_P1;SDS_P2;PMS_P1;PMS_P2;Temp;Humidity;BMP_temperature;BMP_pressure;BME280_temperature;BME280_humidity;BME280_pressure;Samples;Min_cycle;Max_cycle;Signal;HPM_P1;HPM_P2
2022/01/19 00:00:49;;;;;;;48.70;23.58;;;5.40;99.90;;;;;;5094254;28;20142;-73
2022/01/19 00:03:15;;;;;;;48.83;22.30;;;5.50;99.90;;;;;;5092626;28;20020;-72
2022/01/19 00:05:41;;;;;;;51.35;22.08;;;5.60;99.90;;;;;;5093997;28;20485;-73
2022/01/19 00:08:07;;;;;;;44.95;21.33;;;5.70;99.90;;;;;;5094031;28;20456;-73
2022/01/19 00:10:34;;;;;;;54.80;25.33;;;5.60;99.90;;;;;;5072270;28;20511;-72
2022/01/19 00:13:00;;;;;;;65.03;27.10;;;5.40;99.90;;;;;;5072474;28;20037;-72
2022/01/19 00:15:28;;;;;;;62.65;27.90;;;5.50;99.90;;;;;;5073757;28;20119;-72
2022/01/19 00:17:57;;;;;;;55.90;26.08;;;5.40;99.90;;;;;;5073123;28;20024;-73
2022/01/19 00:20:25;;;;;;;54.63;23.75;;;5.40;99.90;;;;;;5081650;28;20047;-72
2022/01/19 00:22:51;;;;;;;53.53;25.98;;;5.40;99.90;;;;;;5092604;28;20032;-72
2022/01/19 00:25:18;;;;;;;58.88;25.45;;;5.40;99.90;;;;;;5093814;28;20102;-72
2022/01/19 00:27:44;;;;;;;50.97;26.23;;;5.30;99.90;;;;;;5093603;28;20032;-72
2022/01/19 00:30:10;;;;;;;65.28;26.52;;;5.10;99.90;;;;;;5093393;28;20032;-72
2022/01/19 00:32:36;;;;;;;51.55;22.67;;;5.10;99.90;;;;;;5075003;28;20495;-73
2022/01/19 00:35:03;;;;;;;42.20;23.40;;;4.90;99.90;;;;;;5093633;28;20123;-72
2022/01/19 00:37:29;;;;;;;51.00;23.63;;;4.80;99.90;;;;;;5093467;28;20036;-72
2022/01/19 00:39:55;;;;;;;53.78;24.55;;;4.80;99.90;;;;;;5093840;28;20012;-72
2022/01/19 00:42:21;;;;;;;56.05;24.48;;;4.70;99.90;;;;;;5093301;28;20039;-73
2022/01/19 00:44:47;;;;;;;46.50;21.90;;;4.70;99.90;;;;;;5092079;28;20032;-73
2022/01/19 00:47:14;;;;;;;48.90;22.85;;;4.40;99.90;;;;;;5093078;28;20024;-72
2022/01/19 00:49:42;;;;;;;44.63;21.73;;;4.50;99.90;;;;;;5093111;28;20395;-72
2022/01/19 00:52:08;;;;;;;44.95;21.60;;;4.60;99.90;;;;;;5093272;28;20071;-72
2022/01/19 00:54:34;;;;;;;54.15;23.65;;;4.60;99.90;;;;;;5092016;28;20032;-72
2022/01/19 00:57:01;;;;;;;45.83;23.55;;;4.70;99.90;;;;;;5091728;28;20369;-72
2022/01/19 00:59:27;;;;;;;42.58;22.67;;;4.80;99.90;;;;;;5093294;28;20098;-72
2022/01/19 01:01:53;;;;;;;46.20;22.40;;;4.70;99.90;;;;;;5091673;28;20036;-72
2022/01/19 01:04:19;;;;;;;51.10;23.80;;;4.80;99.90;;;;;;5091905;28;20024;-72
2022/01/19 01:06:45;;;;;;;57.70;24.90;;;5.10;99.90;;;;;;5091752;28;20472;-72
2022/01/19 01:09:11;;;;;;;61.33;25.23;;;5.20;99.90;;;;;;5088280;28;20016;-73
2022/01/19 01:11:46;;;;;;;57.65;25.35;;;5.20;99.90;;;;;;5072995;28;20055;-73
2022/01/19 01:16:51;;;;;;;44.45;22.50;;;4.90;99.90;;;;;;5072694;28;20040;-72
2022/01/19 01:19:16;;;;;;;47.90;22.05;;;4.40;99.90;;;;;;5071137;28;20029;-72
2022/01/19 01:21:42;;;;;;;44.13;22.85;;;4.20;99.90;;;;;;5054754;28;20039;-72
2022/01/19 01:24:08;;;;;;;51.83;22.50;;;4.40;99.90;;;;;;5072633;28;20103;-72
2022/01/19 01:26:34;;;;;;;53.38;23.90;;;4.30;99.90;;;;;;5080107;28;20426;-72
2022/01/19 01:29:00;;;;;;;45.35;21.98;;;4.20;99.90;;;;;;5092536;28;20112;-72
2022/01/19 01:31:26;;;;;;;48.85;22.75;;;4.30;99.90;;;;;;5092767;28;20036;-72
2022/01/19 01:33:52;;;;;;;43.95;23.73;;;4.40;99.90;;;;;;5091472;28;20058;-73
2022/01/19 01:36:17;;;;;;;55.80;23.35;;;4.50;99.90;;;;;;5083116;28;20028;-72
2022/01/19 01:38:43;;;;;;;51.60;24.52;;;4.20;99.90;;;;;;5071258;28;20021;-73
2022/01/19 01:41:13;;;;;;;47.58;22.75;;;4.20;99.90;;;;;;5071164;28;20154;-72
2022/01/19 01:43:44;;;;;;;52.38;24.65;;;4.00;99.90;;;;;;5054065;28;20029;-72
2022/01/19 01:46:21;;;;;;;46.63;21.27;;;4.00;99.90;;;;;;5071425;28;20021;-72
2022/01/19 01:48:47;;;;;;;46.42;22.67;;;4.00;99.90;;;;;;5071108;28;20044;-73
2022/01/19 01:53:59;;;;;;;45.13;20.70;;;3.90;99.90;;;;;;5070826;28;20116;-72
2022/01/19 01:56:25;;;;;;;54.85;24.05;;;4.10;99.90;;;;;;5071061;28;20029;-72
2022/01/19 01:59:00;;;;;;;50.38;22.75;;;4.10;99.90;;;;;;5055440;28;20020;-73
2022/01/19 02:01:30;;;;;;;45.35;22.58;;;4.00;99.90;;;;;;5072608;28;20109;-72
2022/01/19 02:03:58;;;;;;;59.47;24.27;;;3.90;99.90;;;;;;5070921;28;20052;-72
2022/01/19 02:06:45;;;;;;;54.13;24.77;;;3.80;99.90;;;;;;5071040;28;20100;-71
2022/01/19 02:09:22;;;;;;;52.75;23.02;;;3.70;99.90;;;;;;5076333;28;20024;-72
2022/01/19 02:25:58;;;;;;;52.30;22.50;;;3.20;99.90;;;;;;5075000;28;20036;-72
2022/01/19 02:40:06;;;;;;;50.90;24.38;;;3.30;99.90;;;;;;5094539;28;20042;-72
2022/01/19 02:42:35;;;;;;;61.92;28.33;;;3.60;99.90;;;;;;5095476;28;20033;-72
2022/01/19 02:50:14;;;;;;;66.22;27.40;;;3.50;99.90;;;;;;5094158;28;20055;-73
2022/01/19 02:52:40;;;;;;;69.95;30.17;;;3.40;99.90;;;;;;5095832;28;20034;-72
2022/01/19 02:55:07;;;;;;;81.30;30.63;;;3.30;99.90;;;;;;5094878;28;20039;-72
2022/01/19 02:57:35;;;;;;;74.82;31.52;;;3.30;99.90;;;;;;5094129;28;20024;-72
2022/01/19 03:11:02;;;;;;;74.75;32.42;;;3.40;99.90;;;;;;5074622;28;20041;-72
2022/01/19 03:13:28;;;;;;;83.55;32.55;;;3.40;99.90;;;;;;5073681;28;20408;-72
2022/01/19 03:15:55;;;;;;;76.57;33.83;;;3.40;99.90;;;;;;5073468;28;20025;-72
2022/01/19 03:18:20;;;;;;;78.53;35.75;;;3.40;99.90;;;;;;5073530;28;20029;-72
2022/01/19 03:20:46;;;;;;;86.05;35.00;;;3.30;99.90;;;;;;5072871;28;20028;-72
2022/01/19 03:23:19;;;;;;;80.38;36.65;;;3.30;99.90;;;;;;5073387;28;20410;-72
2022/01/19 03:25:49;;;;;;;79.00;36.47;;;3.30;99.90;;;;;;5074923;28;20051;-72
2022/01/19 03:28:15;;;;;;;77.00;35.30;;;3.40;99.90;;;;;;5093744;28;20078;-72
2022/01/19 03:30:43;;;;;;;88.22;37.53;;;3.50;99.90;;;;;;5093204;28;20480;-72
2022/01/19 03:33:09;;;;;;;76.85;35.17;;;3.50;99.90;;;;;;5093422;28;20028;-72
2022/01/19 03:35:35;;;;;;;76.72;34.47;;;3.50;99.90;;;;;;5094651;28;20095;-72
2022/01/19 03:38:01;;;;;;;89.53;34.90;;;3.50;99.90;;;;;;5076484;28;20020;-72
2022/01/19 03:40:27;;;;;;;88.82;35.25;;;3.60;99.90;;;;;;5092991;28;20024;-72
2022/01/19 03:42:53;;;;;;;79.03;35.80;;;3.60;99.90;;;;;;5093214;28;20032;-72
2022/01/19 03:45:32;;;;;;;77.93;35.10;;;3.50;99.90;;;;;;5093306;28;20117;-72
2022/01/19 03:49:08;;;;;;;77.20;33.75;;;3.40;99.90;;;;;;5093058;28;20476;-72
2022/01/19 03:50:53;;;;;;;83.68;34.63;;;3.50;99.90;;;;;;5071042;28;20044;-72
2022/01/19 03:53:19;;;;;;;87.70;36.75;;;3.50;99.90;;;;;;5093153;28;20024;-72
2022/01/19 03:55:44;;;;;;;96.18;37.08;;;3.50;99.90;;;;;;5092903;28;20039;-72
2022/01/19 03:58:10;;;;;;;85.75;36.25;;;3.50;99.90;;;;;;5076030;28;20376;-73
2022/01/19 04:00:41;;;;;;;88.45;36.13;;;3.50;99.90;;;;;;5092944;28;20476;-72
2022/01/19 04:03:09;;;;;;;79.43;36.67;;;3.60;99.90;;;;;;5094180;28;20016;-72
2022/01/19 04:05:43;;;;;;;90.47;36.63;;;3.40;99.90;;;;;;5092701;28;20012;-72
2022/01/19 04:08:09;;;;;;;86.47;38.33;;;3.40;99.90;;;;;;5092399;28;20035;-72
2022/01/19 04:10:36;;;;;;;86.75;37.42;;;3.50;99.90;;;;;;5077664;28;20040;-72
2022/01/19 04:13:24;;;;;;;73.57;37.13;;;3.50;99.90;;;;;;5072356;28;20383;-72
2022/01/19 04:15:51;;;;;;;78.40;36.35;;;3.70;99.90;;;;;;5072244;28;20025;-72
2022/01/19 04:18:18;;;;;;;74.93;36.17;;;3.60;99.90;;;;;;5072256;28;20032;-72
2022/01/19 04:20:48;;;;;;;69.57;33.10;;;3.50;99.90;;;;;;5072121;28;20072;-72
2022/01/19 04:23:16;;;;;;;68.30;33.33;;;3.60;99.90;;;;;;5071999;28;20481;-72
2022/01/19 04:25:41;;;;;;;64.90;32.58;;;3.60;99.90;;;;;;5073575;28;20021;-72
2022/01/19 04:28:07;;;;;;;66.97;33.03;;;3.60;99.90;;;;;;5092222;28;20093;-72
2022/01/19 04:30:36;;;;;;;67.97;32.13;;;3.50;99.90;;;;;;5092326;28;20039;-72
2022/01/19 04:33:09;;;;;;;71.03;31.15;;;3.50;99.90;;;;;;5091711;28;20024;-72
2022/01/19 04:35:52;;;;;;;65.63;31.30;;;3.50;99.90;;;;;;5092335;28;20539;-72
2022/01/19 05:01:30;;;;;;;47.67;23.65;;;3.80;99.90;;;;;;5090780;28;20174;-72
2022/01/19 05:03:25;;;;;;;42.38;22.63;;;4.00;99.90;;;;;;5091709;28;20062;-72
2022/01/19 05:08:44;;;;;;;42.38;21.58;;;4.10;99.90;;;;;;5091364;28;20058;-72
2022/01/19 05:13:53;;;;;;;44.75;21.45;;;4.10;99.90;;;;;;5071286;28;20036;-72
2022/01/19 05:16:25;;;;;;;41.67;21.27;;;4.10;99.90;;;;;;5071688;28;20025;-72
2022/01/19 05:18:51;;;;;;;38.05;21.73;;;4.10;99.90;;;;;;5071084;28;20062;-72
2022/01/19 05:21:18;;;;;;;43.60;21.77;;;4.00;99.90;;;;;;5071179;28;20037;-72
2022/01/19 05:23:56;;;;;;;48.97;22.63;;;4.10;99.90;;;;;;5072649;28;20056;-72
2022/01/19 05:26:22;;;;;;;44.03;22.52;;;4.10;99.90;;;;;;5061860;28;20484;-72
2022/01/19 05:28:49;;;;;;;40.20;20.70;;;4.10;99.90;;;;;;5091343;28;20423;-72
2022/01/19 05:31:15;;;;;;;49.13;22.08;;;4.00;99.90;;;;;;5091682;28;20028;-72
2022/01/19 05:33:41;;;;;;;37.67;22.30;;;4.20;99.90;;;;;;5091249;28;20028;-72
2022/01/19 05:36:07;;;;;;;43.13;19.98;;;4.20;99.90;;;;;;5091525;28;20062;-72
2022/01/19 05:38:51;;;;;;;37.03;20.77;;;4.10;99.90;;;;;;5091695;28;20549;-72
2022/01/19 05:41:23;;;;;;;42.03;20.67;;;4.00;99.90;;;;;;5091485;28;20027;-73
2022/01/19 05:43:50;;;;;;;42.38;21.05;;;4.00;99.90;;;;;;5091834;28;20025;-72
2022/01/19 05:46:16;;;;;;;47.72;22.83;;;3.80;99.90;;;;;;5095699;28;20026;-73
2022/01/19 05:48:42;;;;;;;38.53;21.02;;;3.90;99.90;;;;;;5095203;28;20027;-72
2022/01/19 05:51:07;;;;;;;40.35;22.63;;;3.90;99.90;;;;;;5096549;28;20052;-72
2022/01/19 05:53:33;;;;;;;42.55;23.38;;;4.00;99.90;;;;;;5096609;28;20025;-72
2022/01/19 05:56:02;;;;;;;33.88;20.20;;;4.00;99.90;;;;;;5095503;28;20032;-72
2022/01/19 05:58:31;;;;;;;37.00;21.13;;;3.90;99.90;;;;;;5095181;28;20031;-73
2022/01/19 06:00:59;;;;;;;41.10;21.48;;;3.90;99.90;;;;;;5095238;28;20119;-72
2022/01/19 06:03:25;;;;;;;38.92;21.55;;;4.10;99.90;;;;;;5096684;28;20024;-72
2022/01/19 06:06:03;;;;;;;36.65;20.88;;;4.00;99.90;;;;;;5094621;28;20032;-72
2022/01/19 06:08:59;;;;;;;42.00;21.05;;;4.00;99.90;;;;;;5096567;28;20043;-72
2022/01/19 06:11:25;;;;;;;35.50;20.35;;;4.00;99.90;;;;;;5074849;28;20032;-72
2022/01/19 06:13:51;;;;;;;36.22;20.42;;;4.10;99.90;;;;;;5057865;28;20048;-72
2022/01/19 06:16:17;;;;;;;36.67;20.42;;;4.10;99.90;;;;;;5074682;28;20025;-72
2022/01/19 06:18:43;;;;;;;34.38;19.75;;;4.20;99.90;;;;;;5074092;28;20485;-72
2022/01/19 06:21:10;;;;;;;43.22;21.95;;;4.20;99.90;;;;;;5074231;28;20068;-72
2022/01/19 06:23:40;;;;;;;32.85;19.35;;;4.10;99.90;;;;;;5074681;28;20051;-72
2022/01/19 06:26:08;;;;;;;47.70;23.48;;;4.10;99.90;;;;;;5079472;28;20060;-72
2022/01/19 06:28:35;;;;;;;41.83;20.95;;;4.10;99.90;;;;;;5094678;28;20016;-72
2022/01/19 06:31:02;;;;;;;39.80;18.63;;;4.30;99.90;;;;;;5094298;28;20093;-72
2022/01/19 06:33:29;;;;;;;35.35;20.15;;;4.30;99.90;;;;;;5094210;28;20020;-72
2022/01/19 06:35:55;;;;;;;30.63;14.55;;;4.10;99.90;;;;;;5077462;28;20541;-73
2022/01/19 06:38:35;;;;;;;38.95;20.55;;;4.20;99.90;;;;;;5079709;28;20032;-72
2022/01/19 06:41:07;;;;;;;36.20;21.05;;;4.10;99.90;;;;;;5094288;28;20047;-73
2022/01/19 06:43:35;;;;;;;39.88;21.40;;;4.10;99.90;;;;;;5094473;28;20553;-72
2022/01/19 06:46:02;;;;;;;39.15;22.70;;;4.20;99.90;;;;;;5094081;28;20028;-73
2022/01/19 06:48:28;;;;;;;40.60;22.95;;;4.20;99.90;;;;;;5094290;28;20027;-72
2022/01/19 06:50:55;;;;;;;39.05;21.27;;;4.20;99.90;;;;;;5093989;28;20537;-72
2022/01/19 06:53:31;;;;;;;38.78;22.88;;;4.20;99.90;;;;;;5094202;28;20115;-72
2022/01/19 06:56:12;;;;;;;36.78;22.80;;;4.30;99.90;;;;;;5093482;28;20535;-72
2022/01/19 06:58:38;;;;;;;38.78;21.48;;;4.20;99.90;;;;;;5094220;28;20408;-73
2022/01/19 07:01:31;;;;;;;40.85;22.85;;;4.40;99.90;;;;;;5080105;28;20057;-72
2022/01/19 07:04:16;;;;;;;41.50;22.83;;;4.30;99.90;;;;;;5093296;28;20035;-72
2022/01/19 07:06:48;;;;;;;35.38;19.88;;;4.20;99.90;;;;;;5094164;28;20089;-71
2022/01/19 07:09:14;;;;;;;35.95;22.65;;;4.30;99.90;;;;;;5091733;28;20024;-71
2022/01/19 07:11:47;;;;;;;31.98;21.52;;;4.40;99.90;;;;;;5073379;28;20036;-71
2022/01/19 07:14:13;;;;;;;35.03;21.83;;;4.30;99.90;;;;;;5074662;28;20036;-72
2022/01/19 07:16:40;;;;;;;38.42;21.98;;;4.40;99.90;;;;;;5073019;28;20043;-71
2022/01/19 07:19:06;;;;;;;33.13;21.90;;;4.20;99.90;;;;;;5073331;28;20029;-71
2022/01/19 07:21:32;;;;;;;34.08;21.55;;;4.30;99.90;;;;;;5073094;28;20032;-72
2022/01/19 07:23:58;;;;;;;36.72;21.23;;;4.50;99.90;;;;;;5056793;28;20043;-71
2022/01/19 07:26:25;;;;;;;38.03;21.73;;;4.40;99.90;;;;;;5080692;28;20024;-72
2022/01/19 07:28:51;;;;;;;38.05;21.77;;;4.50;99.90;;;;;;5093378;28;20539;-71
2022/01/19 07:31:17;;;;;;;35.20;20.75;;;4.50;99.90;;;;;;5092948;28;20128;-71
2022/01/19 07:33:44;;;;;;;34.92;20.45;;;4.40;99.90;;;;;;5093288;28;20503;-72
2022/01/19 07:36:11;;;;;;;34.63;20.40;;;4.30;99.90;;;;;;5093153;28;20083;-71
2022/01/19 07:38:37;;;;;;;32.47;20.83;;;4.40;99.90;;;;;;5093498;28;20472;-71
2022/01/19 07:41:02;;;;;;;36.08;22.38;;;4.40;99.90;;;;;;5093100;28;20028;-71
2022/01/19 07:43:31;;;;;;;33.30;21.00;;;4.40;99.90;;;;;;5093072;28;20438;-72
2022/01/19 07:46:16;;;;;;;36.60;20.90;;;4.30;99.90;;;;;;5094199;28;20074;-71
2022/01/19 07:48:47;;;;;;;36.33;20.88;;;4.20;99.90;;;;;;5093065;28;20028;-71
2022/01/19 07:51:29;;;;;;;32.58;21.33;;;4.30;99.90;;;;;;5078020;28;20055;-71
2022/01/19 07:54:20;;;;;;;32.88;20.35;;;4.30;99.90;;;;;;5091953;28;20036;-70
2022/01/19 07:57:05;;;;;;;35.67;19.98;;;4.40;99.90;;;;;;5094363;28;20036;-71
2022/01/19 07:59:42;;;;;;;38.70;20.58;;;4.50;99.90;;;;;;5094215;28;20036;-71
2022/01/19 08:02:12;;;;;;;43.53;19.77;;;4.40;99.90;;;;;;5092537;28;20388;-71
2022/01/19 08:05:04;;;;;;;38.35;21.55;;;4.40;99.90;;;;;;5077951;28;20498;-70
2022/01/19 08:07:33;;;;;;;35.03;20.05;;;4.50;99.90;;;;;;5088780;28;20020;-71
2022/01/19 08:10:01;;;;;;;32.00;21.58;;;4.40;99.90;;;;;;5092067;28;20491;-71
2022/01/19 08:12:27;;;;;;;32.20;20.83;;;4.60;99.90;;;;;;5075527;28;20069;-71
2022/01/19 08:14:53;;;;;;;39.22;20.67;;;4.60;99.90;;;;;;5092139;28;20020;-70
2022/01/19 08:17:27;;;;;;;34.20;21.35;;;4.60;99.90;;;;;;5092226;28;20455;-71
2022/01/19 08:19:55;;;;;;;39.10;22.33;;;4.60;99.90;;;;;;5092124;28;20020;-71
2022/01/19 08:22:21;;;;;;;44.80;25.33;;;4.80;99.90;;;;;;5092071;28;20441;-71
2022/01/19 08:25:16;;;;;;;44.85;24.88;;;4.90;99.90;;;;;;5079039;28;20032;-71
2022/01/19 08:27:42;;;;;;;40.10;21.70;;;4.80;99.90;;;;;;5092113;28;20031;-71
2022/01/19 08:30:11;;;;;;;39.50;21.25;;;4.80;99.90;;;;;;5091580;28;20036;-72
2022/01/19 08:32:38;;;;;;;37.58;22.73;;;4.70;99.90;;;;;;5092191;28;20021;-72
2022/01/19 08:35:14;;;;;;;41.20;21.30;;;4.80;99.90;;;;;;5092401;28;20071;-71
2022/01/19 08:37:58;;;;;;;39.10;22.02;;;4.80;99.90;;;;;;5092749;28;20097;-71
2022/01/19 08:40:28;;;;;;;30.23;20.00;;;4.70;99.90;;;;;;5092003;28;20114;-71
2022/01/19 08:43:06;;;;;;;40.92;22.08;;;4.70;99.90;;;;;;5091076;28;20406;-71
2022/01/19 08:45:33;;;;;;;40.67;21.75;;;4.70;99.90;;;;;;5091532;28;20036;-71
2022/01/19 08:47:59;;;;;;;33.17;19.02;;;4.70;99.90;;;;;;5091792;28;20027;-71
2022/01/19 08:50:45;;;;;;;36.03;21.17;;;4.90;99.90;;;;;;5092572;28;20097;-71
2022/01/19 08:53:23;;;;;;;41.42;20.23;;;4.80;99.90;;;;;;5091596;28;20457;-71
2022/01/19 08:56:03;;;;;;;32.47;20.17;;;4.80;99.90;;;;;;5091246;28;20063;-71
2022/01/19 08:58:29;;;;;;;36.97;20.25;;;4.80;99.90;;;;;;5092471;28;20103;-72
2022/01/19 09:00:55;;;;;;;36.10;20.98;;;4.90;99.90;;;;;;5092613;28;20524;-71
2022/01/19 09:03:21;;;;;;;35.28;21.10;;;5.00;99.90;;;;;;5092903;28;20056;-71
2022/01/19 09:05:46;;;;;;;36.78;21.15;;;5.00;99.90;;;;;;5092826;28;20028;-71
2022/01/19 09:08:12;;;;;;;37.17;20.73;;;5.10;99.90;;;;;;5091061;28;20031;-72
2022/01/19 09:10:40;;;;;;;31.33;20.48;;;5.10;99.90;;;;;;5076332;28;20561;-71
2022/01/19 09:13:07;;;;;;;34.33;19.88;;;5.10;99.90;;;;;;5073032;28;20392;-72
2022/01/19 09:15:33;;;;;;;35.05;20.13;;;5.20;99.90;;;;;;5071971;28;20051;-72
2022/01/19 09:17:59;;;;;;;33.05;20.63;;;5.10;99.90;;;;;;5054136;28;20025;-72
2022/01/19 09:20:25;;;;;;;39.40;20.45;;;5.20;99.90;;;;;;5070911;28;20186;-72
2022/01/19 09:22:51;;;;;;;30.25;20.10;;;5.20;99.90;;;;;;5071046;28;20020;-72
2022/01/19 09:25:17;;;;;;;29.85;19.48;;;5.10;99.90;;;;;;5072374;28;20534;-72
2022/01/19 09:27:42;;;;;;;38.05;20.33;;;5.00;99.90;;;;;;5089098;28;20042;-72
2022/01/19 09:30:14;;;;;;;30.40;20.63;;;5.00;99.90;;;;;;5091885;28;20114;-72
2022/01/19 09:32:49;;;;;;;41.92;21.25;;;4.90;99.90;;;;;;5091295;28;20365;-71
2022/01/19 09:35:23;;;;;;;40.75;21.77;;;4.80;99.90;;;;;;5092387;28;20115;-72
2022/01/19 09:37:49;;;;;;;47.00;21.52;;;4.90;99.90;;;;;;5090866;28;20365;-72
2022/01/19 09:40:15;;;;;;;44.95;22.10;;;4.90;99.90;;;;;;5090725;28;20032;-72
2022/01/19 09:42:42;;;;;;;44.80;22.23;;;5.00;99.90;;;;;;5091886;28;20024;-72
2022/01/19 09:45:08;;;;;;;34.75;21.30;;;5.00;99.90;;;;;;5091007;28;20040;-72
2022/01/19 09:47:34;;;;;;;40.90;22.15;;;4.80;99.90;;;;;;5091447;28;20384;-72
2022/01/19 09:49:59;;;;;;;33.90;20.63;;;4.80;99.90;;;;;;5083701;28;20037;-71
2022/01/19 09:52:25;;;;;;;39.83;22.20;;;4.90;99.90;;;;;;5080790;28;20107;-71
2022/01/19 09:54:54;;;;;;;35.38;23.30;;;5.00;99.90;;;;;;5092119;28;20073;-72
2022/01/19 09:57:19;;;;;;;34.70;22.65;;;5.00;99.90;;;;;;5076373;28;20044;-72
2022/01/19 09:59:45;;;;;;;41.67;23.23;;;5.10;99.90;;;;;;5071801;28;20029;-72
2022/01/19 10:02:11;;;;;;;41.58;21.73;;;5.10;99.90;;;;;;5071576;28;20040;-71
2022/01/19 10:04:44;;;;;;;44.97;22.33;;;4.90;99.90;;;;;;5071594;28;20052;-72
2022/01/19 10:07:22;;;;;;;47.65;28.35;;;4.90;99.90;;;;;;5057721;28;20377;-72
2022/01/19 10:09:50;;;;;;;53.97;31.45;;;5.00;99.90;;;;;;5083469;28;20028;-72
2022/01/19 10:18:16;;;;;;;50.75;25.35;;;5.00;99.90;;;;;;5069912;28;20044;-71
2022/01/19 10:20:43;;;;;;;32.08;20.92;;;5.10;99.90;;;;;;5070496;28;20041;-73
2022/01/19 10:23:37;;;;;;;35.50;21.88;;;5.00;99.90;;;;;;5088812;28;20058;-73
2022/01/19 10:26:08;;;;;;;39.83;22.55;;;5.00;99.90;;;;;;5091146;28;20115;-73
2022/01/19 10:28:56;;;;;;;35.65;16.83;;;4.90;99.90;;;;;;5091816;28;20044;-71
2022/01/19 10:31:21;;;;;;;36.97;21.75;;;4.90;99.90;;;;;;5092932;28;20051;-71
2022/01/19 10:34:20;;;;;;;35.25;20.00;;;4.90;99.90;;;;;;5095591;28;20020;-71
2022/01/19 10:36:55;;;;;;;36.08;22.10;;;4.90;99.90;;;;;;5095399;28;20066;-71
2022/01/19 10:39:23;;;;;;;30.15;14.77;;;4.90;99.90;;;;;;5095523;28;20547;-73
2022/01/19 10:42:15;;;;;;;35.40;22.85;;;4.80;99.90;;;;;;5095059;28;20431;-74
2022/01/19 10:44:55;;;;;;;42.70;21.85;;;5.00;99.90;;;;;;5093760;28;20472;-72
2022/01/19 10:47:53;;;;;;;37.30;22.42;;;4.90;99.90;;;;;;5094918;28;20069;-71
2022/01/19 10:50:25;;;;;;;34.63;23.05;;;4.90;99.90;;;;;;5092816;28;20036;-71
2022/01/19 10:52:53;;;;;;;41.72;24.02;;;5.00;99.90;;;;;;5094829;28;20448;-71
2022/01/19 10:55:19;;;;;;;45.95;24.95;;;5.00;99.90;;;;;;5094611;28;20051;-71
2022/01/19 10:57:45;;;;;;;48.40;26.80;;;5.00;99.90;;;;;;5093633;28;20491;-71
2022/01/19 11:00:23;;;;;;;39.47;24.23;;;5.00;99.90;;;;;;5094740;28;20123;-71
2022/01/19 11:02:51;;;;;;;42.63;25.20;;;5.00;99.90;;;;;;5093852;28;20369;-71
2022/01/19 11:05:38;;;;;;;41.72;24.85;;;5.10;99.90;;;;;;5076106;28;20079;-71
2022/01/19 11:08:04;;;;;;;45.22;25.58;;;5.10;99.90;;;;;;5079523;28;20033;-71
2022/01/19 11:10:31;;;;;;;42.00;24.25;;;5.20;99.90;;;;;;5087948;28;20093;-71
2022/01/19 11:12:57;;;;;;;38.35;23.88;;;5.20;99.90;;;;;;5094900;28;20473;-71
2022/01/19 11:15:23;;;;;;;42.78;25.50;;;5.30;99.90;;;;;;5093403;28;20045;-71
2022/01/19 11:17:49;;;;;;;46.47;27.20;;;5.30;99.90;;;;;;5094899;28;20081;-71
2022/01/19 11:20:18;;;;;;;52.58;26.27;;;5.30;99.90;;;;;;5094251;28;20036;-71
2022/01/19 11:23:05;;;;;;;46.30;25.23;;;5.10;99.90;;;;;;5094683;28;20496;-71
2022/01/19 11:25:48;;;;;;;41.65;24.50;;;5.20;99.90;;;;;;5094235;28;20490;-71
2022/01/19 11:28:46;;;;;;;46.13;24.88;;;5.30;99.90;;;;;;5073084;28;20040;-71
2022/01/19 11:31:14;;;;;;;41.92;24.00;;;5.40;99.90;;;;;;5061511;28;20040;-71
2022/01/19 11:33:44;;;;;;;38.88;23.38;;;5.40;99.90;;;;;;5074013;28;20029;-71
2022/01/19 11:36:21;;;;;;;44.70;23.90;;;5.40;99.90;;;;;;5072695;28;20029;-71
2022/01/19 11:38:50;;;;;;;40.45;25.88;;;5.40;99.90;;;;;;5091233;28;20030;-71
2022/01/19 11:41:15;;;;;;;44.28;26.15;;;5.50;99.90;;;;;;5094066;28;20028;-71
2022/01/19 11:43:54;;;;;;;46.78;25.30;;;5.70;99.90;;;;;;5093158;28;20498;-71
2022/01/19 11:46:31;;;;;;;46.55;25.67;;;5.70;99.90;;;;;;5093945;28;20502;-71
2022/01/19 11:48:58;;;;;;;45.63;24.55;;;5.80;99.90;;;;;;5093858;28;20032;-71
2022/01/19 11:51:37;;;;;;;45.78;24.98;;;5.70;99.90;;;;;;5094022;28;20032;-71
2022/01/19 11:54:23;;;;;;;45.40;24.25;;;5.90;99.90;;;;;;5093552;28;20043;-71
2022/01/19 11:57:07;;;;;;;44.10;23.27;;;6.10;99.90;;;;;;5093940;28;20027;-71
2022/01/19 11:59:52;;;;;;;45.05;25.30;;;5.90;99.90;;;;;;5092434;28;20039;-71
2022/01/19 12:02:24;;;;;;;46.42;25.25;;;5.70;99.90;;;;;;5092284;28;20366;-70
2022/01/19 12:04:59;;;;;;;53.40;26.52;;;5.80;99.90;;;;;;5092708;28;20048;-72
2022/01/19 12:07:43;;;;;;;46.35;26.60;;;5.70;99.90;;;;;;5091857;28;20028;-71
2022/01/19 12:10:16;;;;;;;52.08;27.38;;;5.80;99.90;;;;;;5082248;28;20040;-71
2022/01/19 12:13:15;;;;;;;69.57;33.30;;;5.80;99.90;;;;;;5056208;28;20492;-71
2022/01/19 12:15:55;;;;;;;53.17;27.92;;;5.90;99.90;;;;;;5072732;28;20036;-70
2022/01/19 12:18:55;;;;;;;50.58;25.85;;;6.00;99.90;;;;;;5093451;28;20384;-71
2022/01/19 12:21:21;;;;;;;60.13;31.63;;;5.70;99.90;;;;;;5081956;28;20098;-71
2022/01/19 12:23:48;;;;;;;65.47;28.60;;;5.80;99.90;;;;;;5091873;28;20469;-70
2022/01/19 12:26:15;;;;;;;57.25;28.33;;;5.80;99.90;;;;;;5092636;28;20046;-71
2022/01/19 12:28:53;;;;;;;58.38;27.95;;;5.90;99.90;;;;;;5093155;28;20024;-71
2022/01/19 12:31:25;;;;;;;53.33;27.50;;;5.90;99.90;;;;;;5093287;28;20047;-71
2022/01/19 12:34:02;;;;;;;59.80;29.33;;;6.00;99.90;;;;;;5093314;28;20024;-71
2022/01/19 12:36:49;;;;;;;51.10;27.27;;;6.10;99.90;;;;;;5092934;28;20119;-71
2022/01/19 12:39:28;;;;;;;54.22;28.08;;;6.30;99.90;;;;;;5090354;28;20060;-71
2022/01/19 12:42:03;;;;;;;55.90;29.38;;;6.20;99.90;;;;;;5088244;28;20154;-71
2022/01/19 12:44:34;;;;;;;59.33;28.20;;;6.20;99.90;;;;;;5093630;28;20111;-71
2022/01/19 12:47:19;;;;;;;64.97;29.52;;;6.10;99.90;;;;;;5091735;28;20078;-71
2022/01/19 12:49:46;;;;;;;39.22;18.70;;;6.30;99.90;;;;;;5092855;28;20035;-71
2022/01/19 12:52:15;;;;;;;54.65;28.27;;;6.30;99.90;;;;;;5092837;28;20047;-71
2022/01/19 12:54:41;;;;;;;62.53;27.65;;;6.20;99.90;;;;;;5092848;28;20032;-71
2022/01/19 12:57:07;;;;;;;55.00;27.30;;;6.10;99.90;;;;;;5093245;28;20460;-71
2022/01/19 12:59:34;;;;;;;52.55;27.52;;;6.20;99.90;;;;;;5093029;28;20461;-71
2022/01/19 13:02:01;;;;;;;47.40;25.88;;;6.20;99.90;;;;;;5092717;28;20613;-71
2022/01/19 13:04:28;;;;;;;47.67;24.35;;;6.20;99.90;;;;;;5092949;28;20052;-71
2022/01/19 13:06:57;;;;;;;58.47;28.15;;;6.10;99.90;;;;;;5074467;28;20464;-72
2022/01/19 13:09:33;;;;;;;59.17;29.50;;;6.10;99.90;;;;;;5092691;28;20499;-72
2022/01/19 13:12:10;;;;;;;45.47;26.70;;;6.20;99.90;;;;;;5092438;28;20059;-72
2022/01/19 13:14:35;;;;;;;49.30;24.42;;;6.30;99.90;;;;;;5092826;28;20145;-72
2022/01/19 13:17:01;;;;;;;45.15;24.17;;;6.20;99.90;;;;;;5092501;28;20050;-72
2022/01/19 13:19:28;;;;;;;53.78;25.73;;;6.10;99.90;;;;;;5091082;28;20032;-72
2022/01/19 13:22:06;;;;;;;64.93;28.27;;;6.10;99.90;;;;;;5092448;28;20415;-73
2022/01/19 13:24:34;;;;;;;60.10;28.30;;;6.20;99.90;;;;;;5092499;28;20120;-73
2022/01/19 13:27:10;;;;;;;51.35;27.23;;;6.40;99.90;;;;;;5092030;28;20029;-73
2022/01/19 13:29:42;;;;;;;45.92;25.70;;;6.50;99.90;;;;;;5092490;28;20472;-73
2022/01/19 13:32:08;;;;;;;51.65;27.70;;;6.50;99.90;;;;;;5091991;28;20391;-72
2022/01/19 13:34:51;;;;;;;56.70;27.15;;;6.40;99.90;;;;;;5092405;28;20027;-72
2022/01/19 13:37:18;;;;;;;58.53;26.35;;;6.20;99.90;;;;;;5092508;28;20043;-72
2022/01/19 13:39:44;;;;;;;49.63;24.65;;;6.10;99.90;;;;;;5092705;28;20058;-71
2022/01/19 13:42:10;;;;;;;53.28;27.77;;;6.10;99.90;;;;;;5096947;28;20028;-72
2022/01/19 13:44:44;;;;;;;56.08;25.77;;;6.10;99.90;;;;;;5094454;28;20031;-72
2022/01/19 13:47:16;;;;;;;49.28;26.40;;;6.20;99.90;;;;;;5095863;28;20388;-73
2022/01/19 13:49:42;;;;;;;;;;;6.20;99.90;;;;;;5093971;28;20027;-70
2022/01/19 13:52:10;;;;;;;47.97;25.00;;;6.20;99.90;;;;;;5096607;28;19913;-72
2022/01/19 13:54:40;;;;;;;53.70;29.70;;;6.10;99.90;;;;;;5094596;28;20041;-72
2022/01/19 13:57:07;;;;;;;62.30;30.10;;;6.20;99.90;;;;;;5097270;28;20024;-73
2022/01/19 13:59:50;;;;;;;52.63;29.10;;;6.10;99.90;;;;;;5086415;28;20035;-72
2022/01/19 14:02:18;;;;;;;50.53;25.70;;;6.20;99.90;;;;;;5073623;28;20032;-72
2022/01/19 14:04:52;;;;;;;53.40;27.88;;;6.10;99.90;;;;;;5073899;28;20043;-72
2022/01/19 14:07:18;;;;;;;61.17;30.00;;;6.20;99.90;;;;;;5076836;28;20032;-72
2022/01/19 14:09:44;;;;;;;63.97;30.33;;;6.20;99.90;;;;;;5083534;28;20020;-72
2022/01/19 14:12:16;;;;;;;61.63;30.50;;;6.30;99.90;;;;;;5094828;28;20040;-72
2022/01/19 14:14:48;;;;;;;60.08;27.98;;;6.20;99.90;;;;;;5094600;28;20089;-72
2022/01/19 14:17:28;;;;;;;53.95;29.95;;;6.30;99.90;;;;;;5095519;28;20451;-72